Time;durP1;ratioP1;P1;durP2;ratioP2;P2;SDS_P1;SDS_P2;PMS_P1;PMS_P2;Temp;Humidity;BMP_temperature;BMP_pressure;BME280_temperature;BME280_humidity;BME280_pressure;Samples;Min_cycle;Max_cycle;Signal;HPM_P1;HPM_P2
2024/03/21 00:00:50;;;;;;;44.40;27.80;;;;;;;1.90;68.75;97580.60;107885;1237;99295;-81
2024/03/21 00:04:16;;;;;;;50.80;29.90;;;;;;;1.76;68.91;97579.66;107919;1237;99716;-81
2024/03/21 00:07:04;;;;;;;52.70;30.50;;;;;;;1.59;69.26;97580.09;107914;1245;104761;-82
2024/03/21 00:09:34;;;;;;;47.50;28.20;;;;;;;1.56;69.50;97582.97;107916;1248;101261;-81
2024/03/21 00:12:41;;;;;;;45.20;28.20;;;;;;;1.56;69.45;97584.14;107888;1237;99660;-81
2024/03/21 00:15:09;;;;;;;48.60;30.40;;;;;;;1.54;69.45;97585.27;107900;1235;99239;-79
2024/03/21 00:17:36;;;;;;;51.00;32.50;;;;;;;1.47;69.40;97585.55;107847;1237;100438;-80
2024/03/21 00:20:24;;;;;;;63.80;33.80;;;;;;;1.40;69.65;97587.30;107948;1237;99325;-80
2024/03/21 00:22:51;;;;;;;56.70;33.60;;;;;;;1.31;69.76;97587.48;107878;1237;101672;-82
2024/03/21 00:25:18;;;;;;;53.00;31.70;;;;;;;1.27;69.88;97589.16;107933;1237;99355;-79
2024/03/21 00:27:45;;;;;;;54.00;32.10;;;;;;;1.25;69.94;97588.58;107897;1245;99692;-81
2024/03/21 00:30:15;;;;;;;49.60;31.10;;;;;;;1.24;70.00;97579.48;107907;1237;99355;-80
2024/03/21 00:32:42;;;;;;;55.40;32.90;;;;;;;1.23;70.05;97577.41;107951;1236;105111;-79
2024/03/21 00:35:28;;;;;;;54.20;30.80;;;;;;;1.23;70.05;97576.43;107913;1237;99357;-80
2024/03/21 00:37:58;;;;;;;51.50;31.20;;;;;;;1.23;70.11;97573.35;107939;1233;100399;-78
2024/03/21 00:40:25;;;;;;;52.20;30.10;;;;;;;1.26;70.07;97571.00;107871;1248;99409;-79
2024/03/21 00:42:51;;;;;;;49.40;30.50;;;;;;;1.26;70.10;97567.39;107845;1245;99282;-78
2024/03/21 00:45:18;;;;;;;51.60;31.80;;;;;;;1.21;69.99;97563.17;107915;1248;99284;-80
2024/03/21 00:48:25;;;;;;;55.80;32.60;;;;;;;1.17;70.10;97568.89;107882;1237;99752;-79
2024/03/21 00:50:51;;;;;;;52.40;31.90;;;;;;;1.12;70.22;97569.87;107863;1238;99655;-79
2024/03/21 00:53:18;;;;;;;53.70;31.20;;;;;;;1.07;70.17;97562.88;107939;1235;100161;-83
2024/03/21 00:56:04;;;;;;;52.60;31.10;;;;;;;1.00;70.07;97558.80;107915;1235;99385;-79
2024/03/21 00:58:30;;;;;;;49.50;29.60;;;;;;;0.96;70.28;97557.53;107917;1237;101246;-78
2024/03/21 01:01:37;;;;;;;52.50;31.40;;;;;;;0.95;70.28;97555.96;107905;1234;99344;-80
2024/03/21 01:04:03;;;;;;;55.40;33.80;;;;;;;0.90;70.51;97554.58;107884;1245;99249;-79
2024/03/21 01:06:30;;;;;;;56.20;32.90;;;;;;;0.92;70.61;97554.63;107906;1234;99262;-80
2024/03/21 01:08:59;;;;;;;78.40;39.60;;;;;;;0.91;70.60;97559.46;107933;1235;99251;-79
2024/03/21 01:11:26;;;;;;;64.30;35.20;;;;;;;0.84;70.65;97556.22;107900;1237;101206;-79
2024/03/21 01:13:53;;;;;;;64.90;34.70;;;;;;;0.80;70.72;97555.74;107905;1244;99328;-80
2024/03/21 01:16:20;;;;;;;51.00;30.60;;;;;;;0.79;70.86;97556.58;107903;1237;99247;-81
2024/03/21 01:18:49;;;;;;;43.30;28.60;;;;;;;0.76;70.79;97555.77;107960;1237;99593;-81
2024/03/21 01:21:16;;;;;;;48.40;29.80;;;;;;;0.71;70.63;97555.25;107934;1238;99262;-82
2024/03/21 01:23:42;;;;;;;41.40;27.30;;;;;;;0.68;70.81;97548.80;107817;1241;99384;-82
2024/03/21 01:26:12;;;;;;;41.70;26.70;;;;;;;0.64;70.70;97548.58;107882;1234;99327;-83
2024/03/21 01:28:42;;;;;;;44.80;28.30;;;;;;;0.61;70.91;97546.08;107933;1237;99268;-82
2024/03/21 01:31:14;;;;;;;48.20;29.70;;;;;;;0.57;70.99;97542.05;107945;1237;99781;-82
2024/03/21 01:33:42;;;;;;;48.10;28.90;;;;;;;0.57;71.25;97533.00;108009;1244;104345;-82
2024/03/21 01:36:08;;;;;;;43.40;27.40;;;;;;;0.59;71.39;97528.55;107928;1237;99235;-83
2024/03/21 01:38:37;;;;;;;47.30;28.20;;;;;;;0.60;71.35;97526.59;107880;1237;99271;-82
2024/03/21 01:41:04;;;;;;;44.90;27.00;;;;;;;0.58;71.23;97526.17;107915;1237;99289;-82
2024/03/21 01:43:30;;;;;;;45.20;27.60;;;;;;;0.57;71.33;97523.32;107942;1241;99296;-82
2024/03/21 01:46:19;;;;;;;62.50;32.10;;;;;;;0.54;71.23;97517.56;107933;1246;100529;-80
2024/03/21 01:48:49;;;;;;;40.80;27.40;;;;;;;0.50;71.36;97515.67;107906;1234;101368;-79
2024/03/21 01:51:18;;;;;;;43.30;26.90;;;;;;;0.47;71.34;97514.90;107993;1237;99282;-80
2024/03/21 01:53:50;;;;;;;47.20;27.60;;;;;;;0.42;71.25;97518.73;108004;1241;100392;-79
2024/03/21 01:56:17;;;;;;;;;;;;;;;0.37;71.20;97520.92;107948;1234;99242;-79
2024/03/21 01:58:44;;;;;;;90.20;40.20;;;;;;;0.28;71.56;97519.79;107908;1235;99371;-80
2024/03/21 02:01:23;;;;;;;73.50;37.60;;;;;;;0.26;71.73;97518.27;107920;1234;99271;-79
2024/03/21 02:03:52;;;;;;;57.90;32.00;;;;;;;0.27;71.75;97517.10;107926;1234;99929;-80
2024/03/21 02:06:20;;;;;;;49.50;29.10;;;;;;;0.26;71.73;97515.89;107980;1237;99245;-80
2024/03/21 02:08:47;;;;;;;45.30;27.30;;;;;;;0.25;71.62;97517.61;107911;1237;99209;-79
2024/03/21 02:11:14;;;;;;;41.10;26.20;;;;;;;0.21;71.71;97514.81;107937;1248;99266;-81
2024/03/21 02:13:42;;;;;;;44.50;25.70;;;;;;;0.19;71.77;97515.56;107995;1237;99265;-81
2024/03/21 02:16:08;;;;;;;40.20;26.20;;;;;;;0.17;71.73;97518.75;107946;1248;99271;-79
2024/03/21 02:18:35;;;;;;;42.60;26.50;;;;;;;0.15;71.65;97522.44;107890;1237;99397;-79
2024/03/21 02:21:04;;;;;;;42.50;26.60;;;;;;;0.14;71.72;97525.39;108000;1238;99665;-80
2024/03/21 02:23:31;;;;;;;39.80;25.80;;;;;;;0.12;71.77;97524.94;107981;1237;101452;-79
2024/03/21 02:25:57;;;;;;;41.00;25.20;;;;;;;0.09;71.86;97525.71;107899;1241;99409;-80
2024/03/21 02:28:25;;;;;;;36.90;25.70;;;;;;;0.08;71.92;97526.13;107912;1246;99245;-79
2024/03/21 02:30:52;;;;;;;41.30;26.00;;;;;;;0.07;71.88;97528.17;107909;1237;100606;-79
2024/03/21 02:33:19;;;;;;;42.30;26.30;;;;;;;0.08;71.91;97524.96;107903;1241;99257;-79
2024/03/21 02:35:56;;;;;;;54.60;29.00;;;;;;;0.08;71.97;97526.38;107903;1235;99346;-81
2024/03/21 02:38:22;;;;;;;65.60;32.10;;;;;;;0.06;71.91;97528.08;107895;1237;99891;-79
2024/03/21 02:40:48;;;;;;;46.40;27.80;;;;;;;0.05;72.03;97529.46;107909;1237;99238;-79
2024/03/21 02:43:38;;;;;;;44.40;27.50;;;;;;;0.01;71.92;97526.30;107900;1248;99366;-80
2024/03/21 02:46:05;;;;;;;45.70;26.30;;;;;;;-0.01;72.01;97530.00;107894;1234;103229;-80
2024/03/21 02:48:52;;;;;;;44.20;27.50;;;;;;;-0.04;72.01;97535.29;107911;1241;99250;-79
2024/03/21 02:51:19;;;;;;;46.60;28.60;;;;;;;-0.07;72.10;97533.55;107914;1244;99502;-78
2024/03/21 02:53:45;;;;;;;68.50;33.20;;;;;;;-0.10;72.02;97532.44;107792;1237;190093;-79
2024/03/21 02:56:12;;;;;;;66.70;34.20;;;;;;;-0.14;72.03;97536.06;107950;1238;99822;-80
2024/03/21 02:58:38;;;;;;;54.10;30.80;;;;;;;-0.18;72.07;97535.33;108023;1237;99183;-80
2024/03/21 03:01:05;;;;;;;47.30;28.80;;;;;;;-0.24;71.99;97534.30;107857;1238;99327;-79
2024/03/21 03:03:32;;;;;;;44.10;26.30;;;;;;;-0.29;72.05;97533.67;107904;1237;99327;-78
2024/03/21 03:06:02;;;;;;;42.70;26.20;;;;;;;-0.30;72.27;97533.11;107921;1245;99259;-80
2024/03/21 03:08:49;;;;;;;38.50;24.70;;;;;;;-0.32;72.39;97537.13;107860;1235;104746;-80
2024/03/21 03:11:19;;;;;;;35.90;24.40;;;;;;;-0.31;72.52;97535.82;107931;1237;100262;-78
2024/03/21 03:13:46;;;;;;;36.10;23.90;;;;;;;-0.30;72.63;97533.08;107883;1237;99330;-81
2024/03/21 03:16:12;;;;;;;31.60;22.40;;;;;;;-0.30;72.48;97534.00;107906;1234;99338;-82
2024/03/21 03:18:49;;;;;;;33.20;23.40;;;;;;;-0.33;72.50;97532.42;107957;1236;99265;-83
2024/03/21 03:21:15;;;;;;;39.90;23.90;;;;;;;-0.34;72.54;97537.02;107925;1234;104709;-82
2024/03/21 03:23:42;;;;;;;38.40;24.40;;;;;;;-0.37;72.72;97532.44;107923;1237;99793;-82
2024/03/21 03:26:09;;;;;;;40.80;26.00;;;;;;;-0.39;72.70;97533.13;107876;1248;99263;-83
2024/03/21 03:28:35;;;;;;;51.50;30.20;;;;;;;-0.39;72.66;97532.81;107913;1237;99690;-78
2024/03/21 03:31:02;;;;;;;46.80;29.20;;;;;;;-0.39;72.67;97536.84;107959;1246;99272;-81
2024/03/21 03:36:33;;;;;;;50.40;31.40;;;;;;;-0.39;72.76;97534.95;107862;1238;99835;-80
2024/03/21 03:39:03;;;;;;;47.60;29.50;;;;;;;-0.41;72.87;97534.63;107335;1244;99433;-79
2024/03/21 03:41:30;;;;;;;43.40;28.60;;;;;;;-0.46;72.87;97536.09;107341;1251;99846;-80
2024/03/21 03:44:01;;;;;;;51.60;31.00;;;;;;;-0.52;73.04;97540.77;107326;1251;99309;-79
2024/03/21 03:46:27;;;;;;;54.40;33.60;;;;;;;-0.57;73.24;97542.81;107296;1244;100307;-81
2024/03/21 03:48:54;;;;;;;52.40;32.20;;;;;;;-0.59;73.32;97540.13;107296;1242;99446;-81
2024/03/21 03:51:20;;;;;;;45.10;27.70;;;;;;;-0.60;73.31;97536.53;107295;1244;99287;-79
2024/03/21 03:54:12;;;;;;;48.10;28.30;;;;;;;-0.62;73.05;97539.86;107424;1239;99414;-79
2024/03/21 03:56:58;;;;;;;45.30;28.80;;;;;;;-0.69;73.06;97541.77;107340;1244;100434;-80
2024/03/21 03:59:25;;;;;;;49.10;30.90;;;;;;;-0.73;73.27;97538.44;107320;1238;100072;-80
2024/03/21 04:01:54;;;;;;;49.70;30.90;;;;;;;-0.74;73.34;97540.59;107311;1242;99427;-79
2024/03/21 04:04:21;;;;;;;48.30;30.80;;;;;;;-0.71;73.51;97542.25;107329;1242;100516;-79
2024/03/21 04:06:48;;;;;;;47.40;30.10;;;;;;;-0.66;73.57;97540.27;107295;1240;100615;-79
2024/03/21 04:09:17;;;;;;;46.60;29.00;;;;;;;-0.65;73.62;97542.59;107374;1245;99443;-79
2024/03/21 04:11:44;;;;;;;39.90;27.50;;;;;;;-0.63;73.63;97543.34;107901;1235;99338;-79
2024/03/21 04:14:11;;;;;;;43.40;26.90;;;;;;;-0.61;73.67;97543.28;107895;1237;99297;-79
2024/03/21 04:16:37;;;;;;;45.80;28.60;;;;;;;-0.58;73.71;97541.30;107948;1240;99773;-80
2024/03/21 04:19:03;;;;;;;43.50;27.80;;;;;;;-0.56;73.80;97541.14;108001;1235;100518;-80
2024/03/21 04:21:30;;;;;;;41.20;27.50;;;;;;;-0.56;73.75;97544.05;107919;1237;99329;-81
2024/03/21 04:24:02;;;;;;;41.80;28.10;;;;;;;-0.55;73.88;97548.42;107866;1237;99202;-80
2024/03/21 04:26:28;;;;;;;;;;;;;;;-0.55;73.92;97547.88;107938;1237;99746;-79
2024/03/21 04:28:55;;;;;;;44.80;28.00;;;;;;;-0.56;74.05;97545.14;107929;1246;99252;-80
2024/03/21 04:31:23;;;;;;;43.90;29.80;;;;;;;-0.56;74.11;97547.77;107940;1244;100513;-83
2024/03/21 04:33:49;;;;;;;45.50;30.20;;;;;;;-0.56;74.05;97549.43;107912;1241;99815;-83
2024/03/21 04:36:16;;;;;;;45.20;29.80;;;;;;;-0.57;73.96;97549.67;107982;1248;99235;-83
2024/03/21 04:38:43;;;;;;;45.30;30.40;;;;;;;-0.57;74.00;97554.48;107901;1246;104735;-83
2024/03/21 04:41:09;;;;;;;45.60;30.00;;;;;;;-0.58;74.02;97556.98;107891;1244;99258;-82
2024/03/21 04:43:36;;;;;;;47.60;31.00;;;;;;;-0.59;74.17;97556.06;107922;1237;99271;-83
2024/03/21 04:46:03;;;;;;;46.90;29.50;;;;;;;-0.62;74.32;97553.69;108018;1237;99265;-83
2024/03/21 04:48:29;;;;;;;50.50;30.90;;;;;;;-0.62;74.46;97558.44;107915;1247;104847;-82
2024/03/21 04:50:55;;;;;;;47.40;31.70;;;;;;;-0.61;74.49;97558.66;107932;1237;99354;-83
2024/03/21 04:53:24;;;;;;;53.40;31.10;;;;;;;-0.61;74.57;97555.20;107935;1237;99342;-83
2024/03/21 04:55:50;;;;;;;48.30;31.40;;;;;;;-0.58;74.66;97560.20;107939;1238;99272;-81
2024/03/21 04:58:16;;;;;;;50.50;30.80;;;;;;;-0.54;74.67;97560.21;107930;1245;99262;-81
2024/03/21 05:00:43;;;;;;;50.60;30.90;;;;;;;-0.50;74.61;97562.15;108012;1237;99294;-80
2024/03/21 05:03:10;;;;;;;56.90;35.60;;;;;;;-0.47;74.72;97561.64;107928;1247;99243;-80
2024/03/21 05:05:36;;;;;;;54.50;36.50;;;;;;;-0.45;74.76;97561.08;107916;1237;99239;-80
2024/03/21 05:08:03;;;;;;;58.30;38.60;;;;;;;-0.44;74.77;97563.31;107877;1247;99691;-80
2024/03/21 05:10:29;;;;;;;67.60;42.40;;;;;;;-0.43;74.77;97563.37;107978;1247;100462;-80
2024/03/21 05:12:56;;;;;;;63.90;42.10;;;;;;;-0.41;74.81;97564.33;107908;1245;99262;-80
2024/03/21 05:15:22;;;;;;;62.20;38.90;;;;;;;-0.39;74.87;97562.71;107934;1237;99361;-80
2024/03/21 05:17:49;;;;;;;59.30;38.20;;;;;;;-0.38;74.94;97561.85;107913;1245;99256;-81
2024/03/21 05:20:16;;;;;;;60.60;36.80;;;;;;;-0.36;75.00;97563.61;107975;1237;99732;-81
2024/03/21 05:22:43;;;;;;;61.50;39.50;;;;;;;-0.32;75.00;97571.30;107928;1238;99777;-82
2024/03/21 05:25:09;;;;;;;58.40;37.20;;;;;;;-0.31;75.05;97571.55;107944;1245;99208;-80
2024/03/21 05:27:36;;;;;;;52.30;34.20;;;;;;;-0.30;75.10;97575.55;107933;1238;99823;-80
2024/03/21 05:30:03;;;;;;;50.80;33.20;;;;;;;-0.28;75.19;97574.83;108018;1233;99426;-81
2024/03/21 05:32:30;;;;;;;45.20;31.90;;;;;;;-0.23;75.35;97574.73;107988;1237;99791;-81
2024/03/21 05:34:58;;;;;;;52.40;32.80;;;;;;;-0.17;75.47;97577.36;107927;1237;99323;-79
2024/03/21 05:37:24;;;;;;;57.10;34.30;;;;;;;-0.12;75.54;97579.70;107929;1237;99365;-79
2024/03/21 05:39:53;;;;;;;48.50;34.20;;;;;;;-0.07;75.57;97581.84;107946;1246;100512;-80
2024/03/21 05:42:19;;;;;;;54.10;34.90;;;;;;;-0.01;75.67;97578.27;107938;1237;99338;-80
2024/03/21 05:44:46;;;;;;;53.70;36.50;;;;;;;0.05;75.57;97579.55;107926;1237;99323;-76
2024/03/21 05:47:22;;;;;;;49.60;34.00;;;;;;;0.08;75.58;97576.98;107929;1237;99342;-75
2024/03/21 05:49:49;;;;;;;52.00;34.40;;;;;;;0.12;75.60;97580.98;107949;1245;101006;-77
2024/03/21 05:52:16;;;;;;;50.60;32.90;;;;;;;0.13;75.69;97577.13;107920;1244;99245;-75
2024/03/21 05:54:42;;;;;;;49.10;33.70;;;;;;;0.15;75.75;97573.94;107926;1244;100102;-75
2024/03/21 05:57:08;;;;;;;69.50;38.60;;;;;;;0.19;75.75;97575.90;107960;1238;99245;-76
2024/03/21 05:59:35;;;;;;;134.60;55.60;;;;;;;0.23;75.83;97577.11;107959;1246;99679;-80
2024/03/21 06:02:09;;;;;;;90.10;45.50;;;;;;;0.27;75.70;97577.80;107897;1237;99794;-80
2024/03/21 06:04:37;;;;;;;78.50;42.60;;;;;;;0.33;75.71;97575.11;107953;1233;101267;-79
2024/03/21 06:07:06;;;;;;;53.90;35.60;;;;;;;0.38;75.85;97577.14;107910;1245;99805;-81
2024/03/21 06:09:53;;;;;;;51.60;35.40;;;;;;;0.43;75.94;97579.86;107929;1237;99320;-80
2024/03/21 06:12:19;;;;;;;50.60;34.60;;;;;;;0.48;75.99;97577.95;107957;1248;99236;-81
2024/03/21 06:14:46;;;;;;;55.10;35.40;;;;;;;0.53;75.98;97578.21;107944;1245;99365;-80
2024/03/21 06:17:12;;;;;;;60.80;37.90;;;;;;;0.56;75.96;97577.96;107973;1246;99248;-76
2024/03/21 06:19:39;;;;;;;89.90;49.60;;;;;;;0.55;76.01;97581.17;107939;1235;99271;-80
2024/03/21 06:22:06;;;;;;;77.90;44.80;;;;;;;0.57;75.98;97584.73;107947;1238;99786;-79
2024/03/21 06:24:32;;;;;;;75.40;41.90;;;;;;;0.62;75.89;97583.36;107928;1234;99883;-78
2024/03/21 06:27:11;;;;;;;65.40;37.60;;;;;;;0.68;75.84;97584.38;107910;1241;99322;-77
2024/03/21 06:29:38;;;;;;;67.60;40.70;;;;;;;0.74;75.88;97585.38;107910;1241;100220;-77
2024/03/21 06:32:05;;;;;;;68.40;43.30;;;;;;;0.81;75.79;97584.92;107954;1237;99332;-80
2024/03/21 06:34:31;;;;;;;67.50;41.00;;;;;;;0.88;75.73;97582.64;107958;1237;100357;-80
2024/03/21 06:36:58;;;;;;;72.10;41.50;;;;;;;0.96;75.57;97582.92;107905;1237;99226;-80
2024/03/21 06:39:55;;;;;;;70.10;42.50;;;;;;;1.03;75.48;97579.96;107987;1237;99259;-82
2024/03/21 06:42:21;;;;;;;68.10;40.10;;;;;;;1.06;75.61;97579.98;107854;1237;99256;-79
2024/03/21 06:44:48;;;;;;;69.20;40.70;;;;;;;1.08;75.64;97576.58;107987;1237;99249;-78
2024/03/21 06:47:15;;;;;;;68.20;38.50;;;;;;;1.10;75.71;97571.45;107920;1237;99262;-80
2024/03/21 06:50:01;;;;;;;70.20;42.60;;;;;;;1.13;75.66;97572.41;107951;1237;99345;-80
2024/03/21 06:52:28;;;;;;;67.30;39.10;;;;;;;1.19;75.93;97574.69;109266;1237;99249;-80
2024/03/21 06:55:14;;;;;;;70.20;39.90;;;;;;;1.25;76.05;97570.92;107946;1237;99628;-81
2024/03/21 06:57:42;;;;;;;72.30;42.20;;;;;;;1.31;76.25;97566.03;107854;1239;99815;-83
2024/03/21 07:00:12;;;;;;;72.30;41.90;;;;;;;1.40;76.01;97567.83;107915;1246;114051;-77
2024/03/21 07:03:04;;;;;;;63.40;39.70;;;;;;;1.48;76.03;97565.26;107954;1234;100247;-77
2024/03/21 07:05:31;;;;;;;62.70;37.10;;;;;;;1.59;76.10;97559.71;107942;1247;100060;-77
2024/03/21 07:08:01;;;;;;;95.90;62.10;;;;;;;1.70;76.03;97555.96;107928;1237;99373;-77
2024/03/21 07:10:28;;;;;;;145.60;95.00;;;;;;;1.83;75.87;97556.60;107943;1246;99711;-76
2024/03/21 07:13:29;;;;;;;120.40;85.60;;;;;;;2.02;75.90;97559.49;107950;1246;99305;-77
2024/03/21 07:15:57;;;;;;;81.40;53.10;;;;;;;2.27;75.90;97560.31;107902;1237;109877;-80
2024/03/21 07:18:23;;;;;;;51.60;33.90;;;;;;;2.44;75.58;97556.40;107874;1237;100192;-83
2024/03/21 07:21:24;;;;;;;60.60;36.70;;;;;;;2.60;75.04;97552.48;107929;1247;99277;-81
2024/03/21 07:24:13;;;;;;;51.50;32.00;;;;;;;2.78;74.74;97548.23;108003;1247;99236;-81
2024/03/21 07:26:39;;;;;;;59.40;37.20;;;;;;;3.02;74.73;97542.44;107945;1234;104828;-81
2024/03/21 07:29:47;;;;;;;57.30;33.40;;;;;;;3.25;74.71;97543.32;107878;1239;99246;-82
2024/03/21 07:32:13;;;;;;;44.50;27.40;;;;;;;3.51;74.49;97543.86;107912;1247;100477;-82
2024/03/21 07:34:55;;;;;;;39.80;25.40;;;;;;;3.75;74.03;97536.45;107911;1239;99253;-82
2024/03/21 07:37:27;;;;;;;51.90;29.60;;;;;;;4.04;73.56;97537.13;107950;1237;99249;-79
2024/03/21 07:40:00;;;;;;;;;;;;;;;4.26;73.08;97536.61;107902;1238;103257;-76
2024/03/21 07:42:48;;;;;;;48.60;31.40;;;;;;;4.46;72.91;97537.59;107734;1248;100845;-76
2024/03/21 07:45:34;;;;;;;58.40;36.90;;;;;;;4.72;72.40;97531.35;107925;1245;99779;-78
2024/03/21 07:48:27;;;;;;;53.70;34.80;;;;;;;4.98;72.04;97527.64;107899;1247;99358;-78
2024/03/21 07:51:19;;;;;;;57.70;33.90;;;;;;;5.30;71.82;97531.94;107230;1255;99203;-78
2024/03/21 07:54:06;;;;;;;60.20;31.80;;;;;;;5.72;71.34;97532.77;107116;1243;112429;-77
2024/03/21 07:57:13;;;;;;;62.70;35.20;;;;;;;6.01;70.63;97528.94;107103;1245;101352;-83
2024/03/21 08:00:21;;;;;;;55.40;34.50;;;;;;;6.31;70.18;97525.86;107165;1254;99359;-83
2024/03/21 08:03:07;;;;;;;56.70;32.10;;;;;;;6.56;69.69;97523.58;107094;1242;99342;-82
2024/03/21 08:05:33;;;;;;;56.30;31.80;;;;;;;6.80;69.23;97522.02;107172;1245;99783;-82
2024/03/21 08:08:20;;;;;;;44.80;28.90;;;;;;;7.04;68.77;97523.34;107142;1255;100793;-82
2024/03/21 08:11:27;;;;;;;44.50;27.10;;;;;;;7.30;67.88;97520.68;106896;1247;109591;-82
2024/03/21 08:14:34;;;;;;;44.30;27.40;;;;;;;7.51;67.09;97522.70;107136;1245;99288;-83
2024/03/21 08:17:24;;;;;;;39.70;25.50;;;;;;;7.78;66.46;97522.83;107144;1253;100522;-82
2024/03/21 08:20:31;;;;;;;39.70;24.50;;;;;;;7.99;65.86;97522.63;107113;1245;99865;-82
2024/03/21 08:23:38;;;;;;;44.60;26.10;;;;;;;8.32;65.73;97523.36;107148;1245;105028;-82
2024/03/21 08:26:45;;;;;;;38.20;25.50;;;;;;;8.70;65.39;97515.27;107138;1241;101516;-81
2024/03/21 08:29:34;;;;;;;44.50;24.20;;;;;;;9.02;64.52;97515.00;107675;1233;100576;-83
2024/03/21 08:32:12;;;;;;;35.50;22.40;;;;;;;9.25;63.21;97511.09;107897;1237;99265;-83
2024/03/21 08:35:18;;;;;;;35.70;21.70;;;;;;;9.44;62.90;97510.30;107953;1246;99816;-83
2024/03/21 08:38:25;;;;;;;32.80;21.10;;;;;;;9.80;62.17;97514.18;107939;1238;103841;-82
2024/03/21 08:41:32;;;;;;;27.20;19.00;;;;;;;10.18;61.76;97514.35;107951;1246;101266;-85
2024/03/21 08:44:39;;;;;;;37.10;20.00;;;;;;;10.57;60.77;97514.58;107823;1238;100012;-83
2024/03/21 08:47:46;;;;;;;30.80;18.50;;;;;;;10.89;59.82;97512.09;107856;1237;99252;-77
2024/03/21 08:50:53;;;;;;;34.60;18.60;;;;;;;11.17;58.52;97507.48;107913;1238;99656;-77
2024/03/21 08:53:48;;;;;;;29.80;17.40;;;;;;;11.34;57.13;97500.41;107939;1241;104706;-76
2024/03/21 08:56:38;;;;;;;41.10;19.70;;;;;;;11.50;56.03;97502.50;107912;1240;101090;-76
2024/03/21 08:59:47;;;;;;;34.90;19.40;;;;;;;11.68;55.69;97502.38;107944;1245;100119;-76
2024/03/21 09:02:42;;;;;;;35.80;20.70;;;;;;;11.88;55.14;97494.71;107830;1238;99255;-83
2024/03/21 09:05:49;;;;;;;31.80;19.30;;;;;;;12.06;54.26;97494.86;107779;1246;99793;-83
2024/03/21 09:08:55;;;;;;;33.00;21.40;;;;;;;12.11;53.96;97495.58;107879;1244;112509;-81
2024/03/21 09:11:56;;;;;;;32.10;19.60;;;;;;;12.29;54.00;97495.77;107937;1237;101483;-76
2024/03/21 09:15:04;;;;;;;34.20;21.40;;;;;;;12.52;53.65;97496.09;108724;1237;99334;-83
2024/03/21 09:17:56;;;;;;;34.40;21.70;;;;;;;12.62;53.23;97493.55;107895;1237;99225;-75
2024/03/21 09:20:55;;;;;;;33.20;20.90;;;;;;;12.81;52.63;97490.36;107910;1237;99255;-76
2024/03/21 09:24:03;;;;;;;30.90;20.60;;;;;;;13.07;52.34;97487.06;107924;1240;103809;-78
2024/03/21 09:26:50;;;;;;;37.70;22.40;;;;;;;13.45;52.07;97483.59;108034;1238;100310;-74
2024/03/21 09:29:57;;;;;;;29.60;19.60;;;;;;;13.80;51.73;97478.88;107987;1238;99627;-75
2024/03/21 09:33:04;;;;;;;31.90;20.20;;;;;;;14.20;50.78;97472.82;107922;1240;99327;-82
2024/03/21 09:36:18;;;;;;;31.50;20.50;;;;;;;14.51;49.40;97469.87;107843;1237;99722;-83
2024/03/21 09:39:26;;;;;;;28.20;19.60;;;;;;;14.87;48.61;97464.40;107736;1237;104895;-85
2024/03/21 09:42:33;;;;;;;32.70;19.70;;;;;;;15.22;48.10;97454.98;107967;1245;101361;-83
2024/03/21 09:45:40;;;;;;;30.10;20.10;;;;;;;15.47;46.38;97454.06;107219;1253;100010;-83
2024/03/21 09:48:47;;;;;;;26.60;18.00;;;;;;;15.65;45.54;97451.15;107250;1246;99453;-84
2024/03/21 09:51:48;;;;;;;27.70;19.10;;;;;;;15.91;45.43;97449.58;107274;1246;99790;-75
2024/03/21 09:54:54;;;;;;;30.20;19.80;;;;;;;16.13;44.07;97445.20;107115;1254;103765;-76
2024/03/21 09:58:01;;;;;;;28.60;18.60;;;;;;;16.43;44.25;97446.49;107208;1252;108481;-75
2024/03/21 10:01:08;;;;;;;24.20;17.90;;;;;;;16.67;43.26;97441.52;107254;1249;99805;-75
2024/03/21 10:04:18;;;;;;;28.60;17.60;;;;;;;16.74;42.33;97432.81;107177;1252;99451;-76
2024/03/21 10:07:15;;;;;;;30.40;18.50;;;;;;;16.83;41.83;97431.31;107191;1245;99939;-76
2024/03/21 10:10:11;;;;;;;29.30;18.30;;;;;;;16.96;41.54;97429.80;107242;1240;103940;-77
2024/03/21 10:13:03;;;;;;;25.70;17.50;;;;;;;17.15;40.31;97425.02;107311;1244;101635;-86
2024/03/21 10:16:11;;;;;;;26.20;17.80;;;;;;;17.24;39.91;97419.54;107196;1246;108035;-84
2024/03/21 10:19:17;;;;;;;23.60;16.10;;;;;;;17.31;39.32;97418.21;107283;1252;100669;-83
2024/03/21 10:21:55;;;;;;;22.80;16.20;;;;;;;17.46;39.10;97416.15;107437;1249;99906;-82
2024/03/21 10:24:25;;;;;;;24.80;17.10;;;;;;;17.56;38.46;97416.16;109278;1237;104973;-81
2024/03/21 10:27:12;;;;;;;53.60;36.90;;;;;;;17.63;39.21;97411.06;107969;1245;100448;-84
2024/03/21 10:30:19;;;;;;;24.20;17.90;;;;;;;17.85;38.43;97410.51;107987;1238;100537;-83
2024/03/21 10:33:07;;;;;;;28.90;20.70;;;;;;;17.89;35.94;97410.98;107947;1237;99319;-74
2024/03/21 10:36:14;;;;;;;24.60;17.20;;;;;;;17.80;36.78;97405.52;107844;1241;99742;-75
2024/03/21 10:39:21;;;;;;;20.70;14.10;;;;;;;17.99;36.39;97405.61;107831;1237;103842;-75
2024/03/21 10:42:28;;;;;;;20.50;14.80;;;;;;;18.14;35.78;97401.44;107978;1234;100398;-79
2024/03/21 10:45:41;;;;;;;18.50;13.40;;;;;;;18.39;35.73;97395.25;107897;1237;99255;-80
2024/03/21 10:48:50;;;;;;;20.60;14.90;;;;;;;18.63;35.30;97389.71;107873;1244;99673;-84
2024/03/21 10:51:39;;;;;;;20.00;14.50;;;;;;;18.82;34.10;97384.64;107654;1241;99383;-84
2024/03/21 10:54:46;;;;;;;21.50;15.30;;;;;;;18.76;33.27;97382.65;107337;1243;103551;-84
2024/03/21 10:57:35;;;;;;;22.30;14.10;;;;;;;18.68;32.91;97381.23;107777;1247;101609;-84
2024/03/21 11:00:23;;;;;;;23.00;13.70;;;;;;;18.69;33.45;97377.63;107907;1248;99812;-83
2024/03/21 11:03:30;;;;;;;24.20;12.20;;;;;;;18.78;31.45;97379.59;107971;1237;99302;-76
2024/03/21 11:06:40;;;;;;;17.00;12.40;;;;;;;18.68;31.05;97381.23;107884;1242;101019;-75
2024/03/21 12:16:44;;;;;;;15.50;11.50;;;;;;;20.18;29.49;97345.51;107907;1248;99327;-76
2024/03/21 12:19:53;;;;;;;15.70;11.60;;;;;;;20.37;28.66;97331.66;107804;1249;104850;-75
2024/03/21 12:22:34;;;;;;;21.70;12.60;;;;;;;20.37;28.98;97329.25;107354;1248;100964;-75
2024/03/21 12:25:21;;;;;;;15.30;11.10;;;;;;;20.44;29.00;97326.88;107247;1244;99854;-77
2024/03/21 12:28:08;;;;;;;22.40;15.70;;;;;;;20.48;28.40;97329.73;107227;1252;99556;-76
2024/03/21 12:30:37;;;;;;;26.50;19.90;;;;;;;20.46;30.03;97330.27;107297;1254;99741;-75
2024/03/21 12:33:09;;;;;;;28.70;20.00;;;;;;;20.54;30.25;97329.32;107247;1245;103605;-77
2024/03/21 12:36:04;;;;;;;26.40;19.20;;;;;;;20.56;30.63;97326.63;107283;1254;100856;-76
2024/03/21 12:38:34;;;;;;;26.30;19.00;;;;;;;20.67;30.93;97326.34;107246;1252;100597;-76
2024/03/21 12:41:21;;;;;;;26.90;18.70;;;;;;;20.66;30.18;97327.95;107213;1252;100461;-76
2024/03/21 12:44:14;;;;;;;25.50;18.60;;;;;;;20.65;30.70;97323.39;107246;1252;99772;-83
2024/03/21 12:46:43;;;;;;;;;;;;;;;20.80;30.54;97322.20;107224;1244;103912;-86
2024/03/21 12:49:12;;;;;;;18.30;13.30;;;;;;;20.64;29.95;97324.48;107296;1251;101468;-83
2024/03/21 12:52:01;;;;;;;20.30;14.70;;;;;;;20.52;29.40;97322.91;107301;1251;100053;-83
2024/03/21 12:54:58;;;;;;;20.90;15.40;;;;;;;20.53;29.43;97322.48;107776;1238;100392;-84
2024/03/21 12:57:30;;;;;;;23.50;17.30;;;;;;;20.60;29.99;97318.90;107695;1246;99318;-82
2024/03/21 13:00:19;;;;;;;24.80;18.50;;;;;;;20.72;30.60;97312.67;107811;1247;104986;-83
2024/03/21 13:02:48;;;;;;;26.40;18.10;;;;;;;20.78;30.57;97299.97;107849;1249;100258;-76
2024/03/21 13:05:17;;;;;;;26.20;19.30;;;;;;;20.77;29.74;97297.58;107768;1235;100041;-76
2024/03/21 13:07:47;;;;;;;26.50;19.30;;;;;;;20.78;29.76;97294.71;107766;1247;99277;-74
2024/03/21 13:10:34;;;;;;;24.40;17.90;;;;;;;20.90;30.23;97292.36;107826;1242;99664;-76
2024/03/21 13:13:06;;;;;;;20.60;14.80;;;;;;;21.02;30.07;97288.98;107850;1240;105130;-75
2024/03/21 13:15:53;;;;;;;19.00;14.20;;;;;;;21.23;29.44;97288.24;107812;1241;101247;-76